EBOS/OST METAR and TAF weather

Enter ICAO airport designator
Station Type Date Time Source
EBOS METAR 2020/01/21 21:20 UTC NOAA

EBOS 212120Z 20005KT 0100 R08/0300N R26/0375N FG BKN001 01/01 Q1040 NOSIG


Station Type Date Time Source
EBOS Decoded METAR 2020/01/21 21:20 UTC NOAA

Oostende Airport , Belgium (EBOS) 51-12N 002-52E 5M
Jan 21, 2020 - 04:20 PM EST / 2020.01.21 2120 UTC
Wind: from the SSW (200 degrees) at 6 MPH (5 KT):0
Visibility: less than 1 mile:0
Sky conditions: mostly cloudy
Weather: fog
Temperature: 33 F (1 C)
Windchill: 26 F (-3 C):1
Dew Point: 33 F (1 C)
Relative Humidity: 100%
Pressure (altimeter): 30.71 in. Hg (1040 hPa)
ob: EBOS 212120Z 20005KT 0100 R08/0300N R26/0375N FG BKN001 01/01 Q1040 NOSIG
cycle: 21

Station Type Date Time Source
EBOS TAF 2020/01/21 18:27 UTC NOAA

TAF EBOS 211720Z 2118/2224 20005KT 0500 FG BKN002 PROB30
TEMPO 2118/2204 1500 BKN003
BECMG 2204/2206 6000 NSW SCT008 BKN020
TEMPO 2207/2218 2500 -DZRA BKN005 PROB40
TEMPO 2218/2224 1500 BR BKN005

Example: see airport list